sensor_id;sensor_type;location;lat;lon;timestamp;pressure;altitude;pressure_sealevel;temperature;humidity
12664;BME280;6396;58.490;15.528;2023-05-09T00:02:02;101302.09;;;8.33;67.41
12664;BME280;6396;58.490;15.528;2023-05-09T00:04:29;101211.25;;;7.68;65.31
12664;BME280;6396;58.490;15.528;2023-05-09T00:06:56;101682.41;;;10.81;67.51
12664;BME280;6396;58.490;15.528;2023-05-09T00:09:24;101830.50;;;11.66;65.24
12664;BME280;6396;58.490;15.528;2023-05-09T00:11:50;101775.53;;;11.07;65.84
12664;BME280;6396;58.490;15.528;2023-05-09T00:14:18;101767.59;;;11.07;70.40
12664;BME280;6396;58.490;15.528;2023-05-09T00:16:47;101835.97;;;11.45;66.73
12664;BME280;6396;58.490;15.528;2023-05-09T00:19:15;101682.75;;;10.45;69.52
12664;BME280;6396;58.490;15.528;2023-05-09T00:21:41;101264.47;;;8.19;69.14
12664;BME280;6396;58.490;15.528;2023-05-09T00:24:08;101858.91;;;11.45;68.96
12664;BME280;6396;58.490;15.528;2023-05-09T00:26:35;101408.72;;;9.00;66.40
12664;BME280;6396;58.490;15.528;2023-05-09T00:29:02;101826.28;;;11.43;67.31
12664;BME280;6396;58.490;15.528;2023-05-09T00:31:29;101849.28;;;11.36;66.30
12664;BME280;6396;58.490;15.528;2023-05-09T00:33:57;101734.50;;;10.66;70.74
12664;BME280;6396;58.490;15.528;2023-05-09T00:36:24;101661.88;;;10.20;69.79
12664;BME280;6396;58.490;15.528;2023-05-09T00:38:51;101816.69;;;11.34;69.47
12664;BME280;6396;58.490;15.528;2023-05-09T00:41:18;101744.03;;;10.83;69.24
12664;BME280;6396;58.490;15.528;2023-05-09T00:43:46;101739.69;;;10.79;72.27
12664;BME280;6396;58.490;15.528;2023-05-09T00:46:12;101826.50;;;11.24;68.61
12664;BME280;6396;58.490;15.528;2023-05-09T00:48:39;101636.41;;;10.06;69.56
12664;BME280;6396;58.490;15.528;2023-05-09T00:51:08;101716.19;;;10.49;73.83
12664;BME280;6396;58.490;15.528;2023-05-09T00:53:35;101828.41;;;11.09;69.64
12664;BME280;6396;58.490;15.528;2023-05-09T00:56:02;101677.66;;;10.24;69.40
12664;BME280;6396;58.490;15.528;2023-05-09T00:58:30;101747.81;;;10.55;69.82
12664;BME280;6396;58.490;15.528;2023-05-09T01:00:57;101831.94;;;11.06;71.30
12664;BME280;6396;58.490;15.528;2023-05-09T01:03:26;101684.84;;;9.99;72.75
12664;BME280;6396;58.490;15.528;2023-05-09T01:05:57;101825.75;;;11.09;76.60
12664;BME280;6396;58.490;15.528;2023-05-09T01:08:44;101637.41;;;9.89;73.64
12664;BME280;6396;58.490;15.528;2023-05-09T01:11:17;101645.28;;;9.96;75.45
12664;BME280;6396;58.490;15.528;2023-05-09T01:13:52;101776.72;;;10.73;75.34
12664;BME280;6396;58.490;15.528;2023-05-09T01:16:26;101827.63;;;10.96;76.73
12664;BME280;6396;58.490;15.528;2023-05-09T01:19:02;101659.34;;;9.95;73.68
12664;BME280;6396;58.490;15.528;2023-05-09T01:21:32;101726.81;;;10.40;75.06
12664;BME280;6396;58.490;15.528;2023-05-09T01:24:24;101493.03;;;8.98;78.77
12664;BME280;6396;58.490;15.528;2023-05-09T01:27:08;101820.72;;;10.80;74.25
12664;BME280;6396;58.490;15.528;2023-05-09T01:29:44;101814.56;;;10.77;75.57
12664;BME280;6396;58.490;15.528;2023-05-09T01:32:14;101728.63;;;10.32;75.15
12664;BME280;6396;58.490;15.528;2023-05-09T01:34:44;101738.34;;;10.27;75.86
12664;BME280;6396;58.490;15.528;2023-05-09T01:37:14;101809.41;;;10.59;76.20
12664;BME280;6396;58.490;15.528;2023-05-09T01:39:45;101414.31;;;8.43;77.19
12664;BME280;6396;58.490;15.528;2023-05-09T01:42:14;101684.00;;;9.94;75.93
12664;BME280;6396;58.490;15.528;2023-05-09T01:44:45;101809.34;;;10.72;75.71
12664;BME280;6396;58.490;15.528;2023-05-09T01:47:13;101409.13;;;8.14;76.98
12664;BME280;6396;58.490;15.528;2023-05-09T01:49:42;101658.88;;;9.21;76.60
12664;BME280;6396;58.490;15.528;2023-05-09T01:52:12;101825.25;;;10.63;76.96
12664;BME280;6396;58.490;15.528;2023-05-09T01:54:42;101822.63;;;10.62;77.65
12664;BME280;6396;58.490;15.528;2023-05-09T01:57:10;101821.75;;;10.60;76.17
12664;BME280;6396;58.490;15.528;2023-05-09T01:59:39;101819.94;;;10.65;77.29
12664;BME280;6396;58.490;15.528;2023-05-09T02:02:08;101816.38;;;10.67;76.88
12664;BME280;6396;58.490;15.528;2023-05-09T02:04:35;101819.06;;;10.63;76.48
12664;BME280;6396;58.490;15.528;2023-05-09T02:07:03;101814.69;;;10.60;77.96
12664;BME280;6396;58.490;15.528;2023-05-09T02:09:31;101814.69;;;10.57;76.57
12664;BME280;6396;58.490;15.528;2023-05-09T02:11:58;101824.41;;;10.55;77.96
12664;BME280;6396;58.490;15.528;2023-05-09T02:14:25;101657.03;;;9.46;76.58
12664;BME280;6396;58.490;15.528;2023-05-09T02:16:52;101428.41;;;8.21;78.22
12664;BME280;6396;58.490;15.528;2023-05-09T02:19:21;101818.31;;;10.46;81.21
12664;BME280;6396;58.490;15.528;2023-05-09T02:21:48;101627.19;;;9.35;78.34
12664;BME280;6396;58.490;15.528;2023-05-09T02:24:15;101593.19;;;8.79;78.19
12664;BME280;6396;58.490;15.528;2023-05-09T02:26:41;101831.56;;;10.37;80.02
12664;BME280;6396;58.490;15.528;2023-05-09T02:29:09;101837.78;;;10.27;81.41
12664;BME280;6396;58.490;15.528;2023-05-09T02:31:39;101831.63;;;10.28;81.97
12664;BME280;6396;58.490;15.528;2023-05-09T02:34:08;101798.41;;;9.77;82.80
12664;BME280;6396;58.490;15.528;2023-05-09T02:36:37;101832.53;;;10.25;81.00
12664;BME280;6396;58.490;15.528;2023-05-09T02:39:05;101822.84;;;10.23;80.97
12664;BME280;6396;58.490;15.528;2023-05-09T02:41:31;101741.25;;;9.73;79.79
12664;BME280;6396;58.490;15.528;2023-05-09T02:43:58;101821.09;;;10.22;81.78
12664;BME280;6396;58.490;15.528;2023-05-09T02:46:25;101823.75;;;10.22;81.55
12664;BME280;6396;58.490;15.528;2023-05-09T02:48:52;101822.88;;;10.15;82.33
12664;BME280;6396;58.490;15.528;2023-05-09T02:51:18;101383.88;;;7.59;82.15
12664;BME280;6396;58.490;15.528;2023-05-09T02:53:46;101822.03;;;9.99;83.76
12664;BME280;6396;58.490;15.528;2023-05-09T02:56:13;101753.63;;;9.62;82.93
12664;BME280;6396;58.490;15.528;2023-05-09T02:58:41;101822.88;;;10.04;85.17
12664;BME280;6396;58.490;15.528;2023-05-09T03:01:08;101817.66;;;9.98;88.27
12664;BME280;6396;58.490;15.528;2023-05-09T03:03:34;101817.66;;;9.92;84.77
12664;BME280;6396;58.490;15.528;2023-05-09T03:06:02;101485.44;;;8.02;88.56
12664;BME280;6396;58.490;15.528;2023-05-09T03:08:29;101816.78;;;9.90;91.91
12664;BME280;6396;58.490;15.528;2023-05-09T03:10:57;101376.03;;;7.26;91.70
12664;BME280;6396;58.490;15.528;2023-05-09T03:13:24;101678.34;;;8.79;90.88
12664;BME280;6396;58.490;15.528;2023-05-09T03:15:51;101812.41;;;9.91;87.19
12664;BME280;6396;58.490;15.528;2023-05-09T03:18:17;101587.13;;;8.45;90.13
12664;BME280;6396;58.490;15.528;2023-05-09T03:20:44;101762.41;;;9.64;91.18
12664;BME280;6396;58.490;15.528;2023-05-09T03:23:11;101821.22;;;9.91;88.77
12664;BME280;6396;58.490;15.528;2023-05-09T03:25:38;101814.16;;;9.89;92.26
12664;BME280;6396;58.490;15.528;2023-05-09T03:28:06;101815.94;;;9.87;95.22
12664;BME280;6396;58.490;15.528;2023-05-09T03:30:33;101814.19;;;9.87;93.41
12664;BME280;6396;58.490;15.528;2023-05-09T03:32:59;101664.22;;;9.01;94.63
12664;BME280;6396;58.490;15.528;2023-05-09T03:35:27;101602.91;;;8.54;92.67
12664;BME280;6396;58.490;15.528;2023-05-09T03:37:54;101727.41;;;9.15;94.94
12664;BME280;6396;58.490;15.528;2023-05-09T03:40:21;101813.31;;;9.84;94.54
12664;BME280;6396;58.490;15.528;2023-05-09T03:42:47;101437.31;;;7.55;93.45
12664;BME280;6396;58.490;15.528;2023-05-09T03:45:15;101348.88;;;7.09;93.75
12664;BME280;6396;58.490;15.528;2023-05-09T03:47:42;101738.75;;;9.43;94.66
12664;BME280;6396;58.490;15.528;2023-05-09T03:50:09;101729.97;;;9.41;94.38
12664;BME280;6396;58.490;15.528;2023-05-09T03:52:36;101823.84;;;9.90;96.24
12664;BME280;6396;58.490;15.528;2023-05-09T03:55:03;101751.91;;;9.53;96.89
12664;BME280;6396;58.490;15.528;2023-05-09T03:57:31;101812.41;;;9.89;96.45
12664;BME280;6396;58.490;15.528;2023-05-09T03:59:58;101635.25;;;8.92;91.74
12664;BME280;6396;58.490;15.528;2023-05-09T04:02:26;101448.69;;;7.87;95.18
12664;BME280;6396;58.490;15.528;2023-05-09T04:04:53;101569.56;;;8.52;92.72
12664;BME280;6396;58.490;15.528;2023-05-09T04:07:20;101812.41;;;9.89;89.49
12664;BME280;6396;58.490;15.528;2023-05-09T04:09:47;101810.66;;;9.90;95.20
12664;BME280;6396;58.490;15.528;2023-05-09T04:12:14;101690.53;;;9.04;94.61
12664;BME280;6396;58.490;15.528;2023-05-09T04:14:41;101814.16;;;9.93;94.44
12664;BME280;6396;58.490;15.528;2023-05-09T04:17:08;101668.72;;;8.44;91.14
12664;BME280;6396;58.490;15.528;2023-05-09T04:19:37;101830.84;;;9.94;94.00
12664;BME280;6396;58.490;15.528;2023-05-09T04:22:03;101822.06;;;9.92;92.22
12664;BME280;6396;58.490;15.528;2023-05-09T04:24:30;101820.31;;;9.97;95.32
12664;BME280;6396;58.490;15.528;2023-05-09T04:26:57;101652.81;;;9.04;93.30
12664;BME280;6396;58.490;15.528;2023-05-09T04:29:24;101376.00;;;7.50;94.67
12664;BME280;6396;58.490;15.528;2023-05-09T04:31:51;101674.66;;;9.26;96.68
12664;BME280;6396;58.490;15.528;2023-05-09T04:34:17;101556.47;;;8.32;89.80
12664;BME280;6396;58.490;15.528;2023-05-09T04:36:46;101816.75;;;10.07;93.92
12664;BME280;6396;58.490;15.528;2023-05-09T04:39:13;101820.31;;;9.97;90.03
12664;BME280;6396;58.490;15.528;2023-05-09T04:41:40;101656.28;;;9.18;93.75
12664;BME280;6396;58.490;15.528;2023-05-09T04:44:08;101580.09;;;8.47;91.32
12664;BME280;6396;58.490;15.528;2023-05-09T04:46:35;101729.84;;;9.72;95.13
12664;BME280;6396;58.490;15.528;2023-05-09T04:49:02;101858.94;;;10.25;94.65
12664;BME280;6396;58.490;15.528;2023-05-09T04:51:29;101447.72;;;8.20;93.10
12664;BME280;6396;58.490;15.528;2023-05-09T04:53:57;101801.66;;;10.33;96.92
12664;BME280;6396;58.490;15.528;2023-05-09T04:56:24;101580.88;;;8.81;92.46
12664;BME280;6396;58.490;15.528;2023-05-09T04:58:50;101119.78;;;6.34;94.39
12664;BME280;6396;58.490;15.528;2023-05-09T05:01:19;101805.06;;;10.50;94.27
12664;BME280;6396;58.490;15.528;2023-05-09T05:03:45;101803.28;;;10.54;93.59
12664;BME280;6396;58.490;15.528;2023-05-09T05:06:12;101679.66;;;9.81;91.48
12664;BME280;6396;58.490;15.528;2023-05-09T05:08:39;101755.00;;;10.32;90.98
12664;BME280;6396;58.490;15.528;2023-05-09T05:11:08;101837.53;;;10.64;89.06
12664;BME280;6396;58.490;15.528;2023-05-09T05:13:35;101779.63;;;10.39;88.43
12664;BME280;6396;58.490;15.528;2023-05-09T05:16:03;101814.63;;;10.72;90.88
12664;BME280;6396;58.490;15.528;2023-05-09T05:18:29;101765.41;;;10.59;90.85
12664;BME280;6396;58.490;15.528;2023-05-09T05:20:56;101570.94;;;9.40;87.13
12664;BME280;6396;58.490;15.528;2023-05-09T05:23:23;101788.88;;;10.92;87.59
12664;BME280;6396;58.490;15.528;2023-05-09T05:25:52;101681.94;;;10.36;84.23
12664;BME280;6396;58.490;15.528;2023-05-09T05:28:20;101809.91;;;11.04;83.50
12664;BME280;6396;58.490;15.528;2023-05-09T05:30:53;101428.03;;;9.00;82.23
12664;BME280;6396;58.490;15.528;2023-05-09T05:33:20;101674.31;;;9.95;82.80
12664;BME280;6396;58.490;15.528;2023-05-09T05:35:47;101659.13;;;10.32;78.18
12664;BME280;6396;58.490;15.528;2023-05-09T05:38:14;101539.13;;;9.69;78.75
12664;BME280;6396;58.490;15.528;2023-05-09T05:40:41;101378.13;;;8.79;79.20
12664;BME280;6396;58.490;15.528;2023-05-09T05:43:08;101427.81;;;9.28;74.38
12664;BME280;6396;58.490;15.528;2023-05-09T05:45:36;101364.81;;;9.02;73.08
12664;BME280;6396;58.490;15.528;2023-05-09T05:48:03;101793.59;;;11.53;72.70
12664;BME280;6396;58.490;15.528;2023-05-09T05:50:30;101629.84;;;10.57;71.54
12664;BME280;6396;58.490;15.528;2023-05-09T05:52:57;101809.34;;;11.66;70.97
12664;BME280;6396;58.490;15.528;2023-05-09T05:55:24;101794.25;;;11.73;70.23
12664;BME280;6396;58.490;15.528;2023-05-09T05:57:51;101751.31;;;11.47;68.76
12664;BME280;6396;58.490;15.528;2023-05-09T06:00:18;101664.25;;;11.28;67.11
12664;BME280;6396;58.490;15.528;2023-05-09T06:02:46;101363.84;;;9.12;69.42
12664;BME280;6396;58.490;15.528;2023-05-09T06:05:14;101736.00;;;11.76;69.31
12664;BME280;6396;58.490;15.528;2023-05-09T06:07:41;101761.06;;;12.14;67.76
12664;BME280;6396;58.490;15.528;2023-05-09T06:10:09;101423.47;;;10.18;66.61
12664;BME280;6396;58.490;15.528;2023-05-09T06:12:36;101793.41;;;12.36;65.90
12664;BME280;6396;58.490;15.528;2023-05-09T06:15:05;101369.19;;;9.92;63.69
12664;BME280;6396;58.490;15.528;2023-05-09T06:17:32;101771.06;;;12.54;64.00
12664;BME280;6396;58.490;15.528;2023-05-09T06:20:02;101739.06;;;12.66;64.26
12664;BME280;6396;58.490;15.528;2023-05-09T06:22:29;101739.81;;;12.75;63.83
12664;BME280;6396;58.490;15.528;2023-05-09T06:24:56;101736.16;;;12.82;65.77
12664;BME280;6396;58.490;15.528;2023-05-09T06:27:23;101606.84;;;11.99;63.17
12664;BME280;6396;58.490;15.528;2023-05-09T06:29:52;101569.78;;;12.00;61.66
12664;BME280;6396;58.490;15.528;2023-05-09T06:32:18;101652.78;;;12.50;62.95
12664;BME280;6396;58.490;15.528;2023-05-09T06:34:45;101668.88;;;12.88;63.71
12664;BME280;6396;58.490;15.528;2023-05-09T06:37:13;101735.16;;;13.36;65.42
12664;BME280;6396;58.490;15.528;2023-05-09T06:39:40;101728.81;;;13.43;65.19
12664;BME280;6396;58.490;15.528;2023-05-09T06:42:09;101686.88;;;13.18;68.57
12664;BME280;6396;58.490;15.528;2023-05-09T06:44:36;101721.41;;;13.61;68.62
12664;BME280;6396;58.490;15.528;2023-05-09T06:47:03;101472.69;;;12.02;74.42
12664;BME280;6396;58.490;15.528;2023-05-09T06:49:30;101722.91;;;13.72;79.56
12664;BME280;6396;58.490;15.528;2023-05-09T06:51:58;101637.00;;;13.36;84.24
12664;BME280;6396;58.490;15.528;2023-05-09T06:54:26;101720.72;;;13.91;86.21
12664;BME280;6396;58.490;15.528;2023-05-09T06:57:09;101708.66;;;14.16;84.71
12664;BME280;6396;58.490;15.528;2023-05-09T06:59:36;101701.13;;;14.36;85.94
12664;BME280;6396;58.490;15.528;2023-05-09T07:02:04;101589.75;;;13.90;84.94
12664;BME280;6396;58.490;15.528;2023-05-09T07:04:31;101694.22;;;14.96;82.82
12664;BME280;6396;58.490;15.528;2023-05-09T07:07:02;101690.31;;;15.72;77.23
12664;BME280;6396;58.490;15.528;2023-05-09T07:09:55;101680.22;;;17.15;68.56
12664;BME280;6396;58.490;15.528;2023-05-09T07:12:22;101682.88;;;18.52;64.86
12664;BME280;6396;58.490;15.528;2023-05-09T07:14:48;101677.03;;;19.63;58.88
12664;BME280;6396;58.490;15.528;2023-05-09T07:17:23;101561.06;;;19.78;51.38
12664;BME280;6396;58.490;15.528;2023-05-09T07:19:49;101671.88;;;21.20;51.96
12664;BME280;6396;58.490;15.528;2023-05-09T07:22:16;101672.50;;;21.73;49.76
12664;BME280;6396;58.490;15.528;2023-05-09T07:24:43;101667.94;;;22.06;45.91
12664;BME280;6396;58.490;15.528;2023-05-09T07:27:25;101660.81;;;22.37;43.12
12664;BME280;6396;58.490;15.528;2023-05-09T07:29:52;101652.56;;;22.40;45.06
12664;BME280;6396;58.490;15.528;2023-05-09T07:32:26;101665.97;;;22.71;43.37
12664;BME280;6396;58.490;15.528;2023-05-09T07:35:08;101034.22;;;19.42;44.95
12664;BME280;6396;58.490;15.528;2023-05-09T07:37:35;101566.53;;;23.24;42.74
12664;BME280;6396;58.490;15.528;2023-05-09T07:40:17;101637.94;;;24.15;41.16
12664;BME280;6396;58.490;15.528;2023-05-09T07:42:45;101641.88;;;24.24;39.71
12664;BME280;6396;58.490;15.528;2023-05-09T07:45:15;101076.00;;;20.81;39.43
12664;BME280;6396;58.490;15.528;2023-05-09T07:47:42;101643.28;;;25.08;39.10
12664;BME280;6396;58.490;15.528;2023-05-09T07:50:13;101337.16;;;23.93;35.49
12664;BME280;6396;58.490;15.528;2023-05-09T07:55:32;101294.06;;;23.14;34.30
12664;BME280;6396;58.490;15.528;2023-05-09T08:05:05;100947.25;;;21.08;29.82
12664;BME280;6396;58.490;15.528;2023-05-09T08:07:32;101009.81;;;21.91;32.89
12664;BME280;6396;58.490;15.528;2023-05-09T08:10:03;101201.81;;;22.84;31.37
12664;BME280;6396;58.490;15.528;2023-05-09T08:12:39;101661.66;;;25.03;30.32
12664;BME280;6396;58.490;15.528;2023-05-09T08:15:12;101664.00;;;24.70;30.49
12664;BME280;6396;58.490;15.528;2023-05-09T08:17:38;101657.97;;;25.04;30.31
12664;BME280;6396;58.490;15.528;2023-05-09T08:20:08;101593.63;;;24.45;28.90
12664;BME280;6396;58.490;15.528;2023-05-09T08:22:37;101495.22;;;23.15;29.82
12664;BME280;6396;58.490;15.528;2023-05-09T08:25:05;101590.50;;;23.57;29.53
12664;BME280;6396;58.490;15.528;2023-05-09T08:27:36;101587.09;;;23.81;30.20
12664;BME280;6396;58.490;15.528;2023-05-09T08:30:05;101325.47;;;22.33;30.52
12664;BME280;6396;58.490;15.528;2023-05-09T08:32:35;101608.84;;;23.92;29.45
12664;BME280;6396;58.490;15.528;2023-05-09T08:35:04;101258.31;;;21.89;30.33
12664;BME280;6396;58.490;15.528;2023-05-09T08:37:34;101572.50;;;23.98;29.95
12664;BME280;6396;58.490;15.528;2023-05-09T08:40:02;101021.69;;;20.48;30.10
12664;BME280;6396;58.490;15.528;2023-05-09T08:42:35;101185.31;;;21.95;29.51
12664;BME280;6396;58.490;15.528;2023-05-09T08:45:06;101463.72;;;23.44;29.79
12664;BME280;6396;58.490;15.528;2023-05-09T08:47:34;101432.88;;;23.48;29.90
12664;BME280;6396;58.490;15.528;2023-05-09T08:50:03;101523.13;;;24.10;29.30
12664;BME280;6396;58.490;15.528;2023-05-09T08:52:43;101509.88;;;24.32;28.14
12664;BME280;6396;58.490;15.528;2023-05-09T08:55:11;101558.50;;;24.71;29.36
12664;BME280;6396;58.490;15.528;2023-05-09T08:57:38;101554.94;;;24.83;29.45
12664;BME280;6396;58.490;15.528;2023-05-09T09:00:06;101416.66;;;24.01;28.85
12664;BME280;6396;58.490;15.528;2023-05-09T09:02:35;101546.72;;;24.85;28.91
12664;BME280;6396;58.490;15.528;2023-05-09T09:05:03;101559.34;;;24.84;28.70
12664;BME280;6396;58.490;15.528;2023-05-09T09:07:33;101533.59;;;24.66;28.60
12664;BME280;6396;58.490;15.528;2023-05-09T09:10:04;101130.09;;;21.89;28.63
12664;BME280;6396;58.490;15.528;2023-05-09T09:12:32;100905.03;;;20.82;29.39
12664;BME280;6396;58.490;15.528;2023-05-09T09:15:03;100908.22;;;20.88;29.07
12664;BME280;6396;58.490;15.528;2023-05-09T09:17:36;101147.47;;;21.84;27.46
12664;BME280;6396;58.490;15.528;2023-05-09T09:20:09;101504.16;;;24.24;28.54
12664;BME280;6396;58.490;15.528;2023-05-09T09:22:46;101415.50;;;23.79;27.79
12664;BME280;6396;58.490;15.528;2023-05-09T09:25:15;101593.72;;;24.70;28.84
12664;BME280;6396;58.490;15.528;2023-05-09T09:27:42;101479.78;;;24.38;28.18
12664;BME280;6396;58.490;15.528;2023-05-09T09:30:11;101524.56;;;24.80;29.39
12664;BME280;6396;58.490;15.528;2023-05-09T09:32:38;101460.22;;;24.85;28.23
12664;BME280;6396;58.490;15.528;2023-05-09T09:35:08;100844.38;;;21.20;28.19
12664;BME280;6396;58.490;15.528;2023-05-09T09:37:43;101454.03;;;24.33;26.71
12664;BME280;6396;58.490;15.528;2023-05-09T09:40:12;101373.03;;;24.33;27.88
12664;BME280;6396;58.490;15.528;2023-05-09T09:42:42;101510.84;;;25.31;28.06
12664;BME280;6396;58.490;15.528;2023-05-09T09:45:10;101256.00;;;23.58;27.59
12664;BME280;6396;58.490;15.528;2023-05-09T09:47:41;101470.03;;;24.61;28.30
12664;BME280;6396;58.490;15.528;2023-05-09T09:50:10;101511.09;;;25.16;27.92
12664;BME280;6396;58.490;15.528;2023-05-09T09:52:48;101498.78;;;25.12;26.87
12664;BME280;6396;58.490;15.528;2023-05-09T09:55:16;101497.56;;;25.41;26.64
12664;BME280;6396;58.490;15.528;2023-05-09T09:57:54;101503.22;;;25.62;25.54
12664;BME280;6396;58.490;15.528;2023-05-09T10:00:27;101339.31;;;24.51;25.31
12664;BME280;6396;58.490;15.528;2023-05-09T10:03:05;101488.16;;;25.21;25.96
12664;BME280;6396;58.490;15.528;2023-05-09T10:05:43;101477.56;;;25.18;25.67
12664;BME280;6396;58.490;15.528;2023-05-09T10:08:10;101229.03;;;24.08;26.48
12664;BME280;6396;58.490;15.528;2023-05-09T10:10:37;101438.75;;;25.56;25.47
12664;BME280;6396;58.490;15.528;2023-05-09T10:13:09;101274.84;;;24.82;25.83
12664;BME280;6396;58.490;15.528;2023-05-09T10:15:50;101479.25;;;25.92;25.30
12664;BME280;6396;58.490;15.528;2023-05-09T10:18:17;101437.50;;;25.60;25.84
12664;BME280;6396;58.490;15.528;2023-05-09T10:20:48;101435.44;;;25.63;25.53
12664;BME280;6396;58.490;15.528;2023-05-09T10:23:16;101483.94;;;26.24;25.83
12664;BME280;6396;58.490;15.528;2023-05-09T10:25:46;101458.00;;;26.33;25.28
12664;BME280;6396;58.490;15.528;2023-05-09T10:28:17;101454.28;;;26.12;24.63
12664;BME280;6396;58.490;15.528;2023-05-09T10:30:55;101370.31;;;25.30;26.08
12664;BME280;6396;58.490;15.528;2023-05-09T10:33:25;101466.66;;;26.03;25.74
12664;BME280;6396;58.490;15.528;2023-05-09T10:35:57;101085.94;;;23.72;25.90
12664;BME280;6396;58.490;15.528;2023-05-09T10:38:24;101465.13;;;25.65;26.64
12664;BME280;6396;58.490;15.528;2023-05-09T10:40:54;101449.59;;;25.67;26.06
12664;BME280;6396;58.490;15.528;2023-05-09T10:43:22;101291.69;;;24.86;26.18
12664;BME280;6396;58.490;15.528;2023-05-09T10:45:50;101172.47;;;24.30;27.10
12664;BME280;6396;58.490;15.528;2023-05-09T10:48:18;101443.06;;;25.82;25.62
12664;BME280;6396;58.490;15.528;2023-05-09T10:50:46;101397.78;;;25.00;25.15
12664;BME280;6396;58.490;15.528;2023-05-09T10:53:13;101469.97;;;25.60;26.36
12664;BME280;6396;58.490;15.528;2023-05-09T10:55:56;101436.84;;;25.45;26.09
12664;BME280;6396;58.490;15.528;2023-05-09T10:58:27;101472.88;;;25.33;26.51
12664;BME280;6396;58.490;15.528;2023-05-09T11:00:57;101424.41;;;26.01;24.37
12664;BME280;6396;58.490;15.528;2023-05-09T11:03:25;101307.78;;;25.11;25.62
12664;BME280;6396;58.490;15.528;2023-05-09T11:05:57;101376.84;;;25.51;26.74
12664;BME280;6396;58.490;15.528;2023-05-09T11:08:25;101383.53;;;25.58;26.23
12664;BME280;6396;58.490;15.528;2023-05-09T11:10:55;101420.44;;;25.59;26.12
12664;BME280;6396;58.490;15.528;2023-05-09T11:13:31;101425.38;;;25.65;26.85
12664;BME280;6396;58.490;15.528;2023-05-09T11:16:10;101468.63;;;25.54;25.56
12664;BME280;6396;58.490;15.528;2023-05-09T11:18:50;101241.38;;;24.72;25.30
12664;BME280;6396;58.490;15.528;2023-05-09T11:21:19;101329.19;;;25.61;25.34
12664;BME280;6396;58.490;15.528;2023-05-09T11:23:47;101304.00;;;25.37;25.93
12664;BME280;6396;58.490;15.528;2023-05-09T11:26:14;101395.53;;;25.78;24.91
12664;BME280;6396;58.490;15.528;2023-05-09T11:28:52;101271.22;;;24.94;24.20
12664;BME280;6396;58.490;15.528;2023-05-09T11:31:20;101336.66;;;25.34;25.13
12664;BME280;6396;58.490;15.528;2023-05-09T11:33:49;101376.00;;;25.51;24.01
12664;BME280;6396;58.490;15.528;2023-05-09T11:36:32;101425.72;;;25.61;24.18
12664;BME280;6396;58.490;15.528;2023-05-09T11:39:01;101377.34;;;25.45;24.08
12664;BME280;6396;58.490;15.528;2023-05-09T11:41:45;101367.94;;;25.38;26.42
12664;BME280;6396;58.490;15.528;2023-05-09T11:44:17;101358.88;;;25.26;24.85
12664;BME280;6396;58.490;15.528;2023-05-09T11:47:08;101294.22;;;24.64;23.93
12664;BME280;6396;58.490;15.528;2023-05-09T11:49:35;101254.38;;;24.55;24.42
12664;BME280;6396;58.490;15.528;2023-05-09T11:52:12;101198.81;;;24.03;23.05
12664;BME280;6396;58.490;15.528;2023-05-09T11:54:39;101131.50;;;23.14;24.25
12664;BME280;6396;58.490;15.528;2023-05-09T11:57:17;101362.75;;;24.63;23.32
12664;BME280;6396;58.490;15.528;2023-05-09T11:59:45;101210.25;;;23.69;23.14
12664;BME280;6396;58.490;15.528;2023-05-09T12:02:16;101137.84;;;23.25;23.67
12664;BME280;6396;58.490;15.528;2023-05-09T12:04:47;101219.81;;;23.36;23.61
12664;BME280;6396;58.490;15.528;2023-05-09T12:07:23;101350.78;;;24.16;23.82
12664;BME280;6396;58.490;15.528;2023-05-09T12:09:50;101333.19;;;24.23;23.64
12664;BME280;6396;58.490;15.528;2023-05-09T12:12:19;101356.06;;;24.30;23.89
12664;BME280;6396;58.490;15.528;2023-05-09T12:14:52;100904.22;;;21.75;24.43
12664;BME280;6396;58.490;15.528;2023-05-09T12:17:34;101145.28;;;23.22;23.38
12664;BME280;6396;58.490;15.528;2023-05-09T12:20:01;101284.28;;;24.03;23.22
12664;BME280;6396;58.490;15.528;2023-05-09T12:22:52;101319.50;;;24.01;24.40
12664;BME280;6396;58.490;15.528;2023-05-09T12:25:23;100934.63;;;21.23;24.21
12664;BME280;6396;58.490;15.528;2023-05-09T12:27:57;101315.56;;;23.80;24.59
12664;BME280;6396;58.490;15.528;2023-05-09T12:30:26;101034.28;;;22.01;24.12
12664;BME280;6396;58.490;15.528;2023-05-09T12:32:57;100842.78;;;20.89;23.31
12664;BME280;6396;58.490;15.528;2023-05-09T12:35:24;100903.91;;;21.00;24.00
12664;BME280;6396;58.490;15.528;2023-05-09T12:37:55;100611.56;;;19.61;23.38
12664;BME280;6396;58.490;15.528;2023-05-09T12:40:23;100635.28;;;19.39;22.92
12664;BME280;6396;58.490;15.528;2023-05-09T12:43:16;101301.94;;;23.44;24.59
12664;BME280;6396;58.490;15.528;2023-05-09T12:45:48;101306.88;;;23.50;24.33
12664;BME280;6396;58.490;15.528;2023-05-09T12:48:23;101335.84;;;23.34;23.98
12664;BME280;6396;58.490;15.528;2023-05-09T12:51:03;100674.44;;;19.12;24.44
12664;BME280;6396;58.490;15.528;2023-05-09T12:53:41;101205.94;;;22.63;24.20
12664;BME280;6396;58.490;15.528;2023-05-09T12:56:46;101296.66;;;23.16;25.07
12664;BME280;6396;58.490;15.528;2023-05-09T12:59:24;100505.84;;;18.09;23.53
12664;BME280;6396;58.490;15.528;2023-05-09T13:02:09;101294.13;;;23.00;22.70
12664;BME280;6396;58.490;15.528;2023-05-09T13:04:37;101377.16;;;22.94;24.13
12664;BME280;6396;58.490;15.528;2023-05-09T13:07:09;100975.25;;;21.04;24.19
12664;BME280;6396;58.490;15.528;2023-05-09T13:09:53;101283.91;;;22.79;24.47
12664;BME280;6396;58.490;15.528;2023-05-09T13:12:29;101282.16;;;22.78;24.22
12664;BME280;6396;58.490;15.528;2023-05-09T13:15:20;100576.03;;;18.12;24.43
12664;BME280;6396;58.490;15.528;2023-05-09T13:18:17;100755.19;;;19.63;26.75